Kensington, Canada
Current Conditions -  °F | °C
As of 6:26 AM on Monday 20 Oct 2014 (Local Time) from CYYG Reporting Station
Rain Showers Rain Showers  
Wind Chill:   Ceiling: 2400
Heat Index:   Visibility: 15mi
Dew Point:   Wind: 12mph
Humidity: 93%   Direction: 280°W
Pressure: 29.54"   Gusts: NA
Location:  46.43°N, 63.65°W
Report Text: CYYG 200926Z 28010KT 15SM -SHRA SCT009 BKN024 OVC042 04/03 A2954 RMK SF3SC4SC1 SLP004
Loading
Personal Weather Stations






























Interactive Weather Map
Tropical Storm Tracking
New forecast layout! Learn more

10-Day Weather Forecast

Advertisements
Track Severe Weather on mobile